Ana Sayfa
METAR-TAF:

METAR-TAF

Havaalanları :

Konya Havalimanı

Konya, Türkiye

Enlem: 37-58N, Boylam: 032-33E, yükseklik: 1032 m

Güncel hava durumu gözlemi

Rapor saat 06:50 UTC de 30 dakika önce yapıldı.
Rüzgar değişken yönden 2 kt
Sıcaklık 13°C
Nem 77%
Basınç 1021 hPa
Görüş mesafesi: 7000 m
3300 ft yükseklikte parçalı bulutlu
20000 ft yükseklikte parçalı çok bulutlu

METAR: LTAN 220650Z VRB02KT 7000 SCT033 BKN200 13/09 Q1021 NOSIG

Saat: 10:20 (07:20 UTC)

Tahmin

Rapor saat 04:40 UTC de 2 saat ve 40 dakika önce yapıldı.
Ayın 22'si saat 06 UTC'den ayın 22'si saat 15 UTC'ye kadar geçerli Tahmin
Rüzgar değişken yönden 2 kt
Görüş mesafesi 10 km veya daha fazla
4000 ft yükseklikte parçalı bulutlu
20000 ft yükseklikte parçalı çok bulutlu

TAF: LTAN 220440Z 2206/2215 VRB02KT 9999 SCT040 BKN200

4.000'den fazla havaalanı için hava durumu gözlemleri ve tahminleri (METAR ve TAF raporları).

Kullanılabilir istasyonlar harita üzerinde sarı ve kırmızı noktalarla gösterilir.

İstasyonun adını görmek için fareyi noktanın üzerinde gezdirin.

Sonrasında hava gözlem ve tahminlerini görmek için tıklayın.

Haritayı değiştirmek için: yaklaştırmak için siyah artı işaretli yeşil düğmeye ve uzaklaştırmak için de eksi işaretli düğmeye hızla tıklayın; bitişik haritalar için yeşil okları kullanın.


METAR-TAF: